createdAt,value
2023-07-17T00:00:07.476Z,99.90
2023-07-17T00:02:36.478Z,99.90
2023-07-17T00:05:05.492Z,99.90
2023-07-17T00:07:35.122Z,99.90
2023-07-17T00:10:05.321Z,99.90
2023-07-17T00:12:33.802Z,99.90
2023-07-17T00:15:05.974Z,99.90
2023-07-17T00:17:34.805Z,99.90
2023-07-17T00:20:07.099Z,99.90
2023-07-17T00:22:36.994Z,99.90
2023-07-17T00:25:06.430Z,99.90
2023-07-17T00:27:36.476Z,99.90
2023-07-17T00:30:06.296Z,99.90
2023-07-17T00:32:34.667Z,99.90
2023-07-17T00:35:02.994Z,99.90
2023-07-17T00:37:32.210Z,99.90
2023-07-17T00:40:01.888Z,99.90
2023-07-17T00:42:30.156Z,99.90
2023-07-17T00:44:58.388Z,99.90
2023-07-17T00:47:27.029Z,99.90
2023-07-17T00:49:55.821Z,99.90
2023-07-17T00:52:24.330Z,99.90
2023-07-17T00:54:53.444Z,99.90
2023-07-17T00:57:26.453Z,99.90
2023-07-17T00:59:55.201Z,99.90
2023-07-17T01:02:25.396Z,99.90
2023-07-17T01:04:54.179Z,99.90
2023-07-17T01:07:22.477Z,99.90
2023-07-17T01:09:50.968Z,99.90
2023-07-17T01:12:19.267Z,99.90
2023-07-17T01:14:49.311Z,99.90
2023-07-17T01:17:17.635Z,99.90
2023-07-17T01:19:46.394Z,99.90
2023-07-17T01:22:22.871Z,99.90
2023-07-17T01:24:53.993Z,99.90
2023-07-17T01:27:22.275Z,99.90
2023-07-17T01:29:50.554Z,99.90
2023-07-17T01:32:21.277Z,99.90
2023-07-17T01:34:49.713Z,99.90
2023-07-17T01:37:19.509Z,99.90
2023-07-17T01:39:48.908Z,99.90
2023-07-17T01:42:18.515Z,99.90
2023-07-17T01:44:46.726Z,99.90
2023-07-17T01:47:15.121Z,99.90
2023-07-17T01:49:43.471Z,99.90
2023-07-17T01:52:11.776Z,99.90
2023-07-17T01:54:40.111Z,99.90
2023-07-17T01:57:10.353Z,99.90
2023-07-17T01:59:40.003Z,99.90
2023-07-17T02:02:09.345Z,99.90
2023-07-17T02:04:37.946Z,99.90
2023-07-17T02:07:06.359Z,99.90
2023-07-17T02:09:34.694Z,99.90
2023-07-17T02:12:03.189Z,99.90
2023-07-17T02:14:33.988Z,99.90
2023-07-17T02:17:04.365Z,99.90
2023-07-17T02:19:32.632Z,99.90
2023-07-17T02:22:00.815Z,99.90
2023-07-17T02:24:29.193Z,99.90
2023-07-17T02:27:00.219Z,99.90
2023-07-17T02:29:28.516Z,99.90
2023-07-17T02:31:56.898Z,99.90
2023-07-17T02:34:28.496Z,99.90
2023-07-17T02:36:58.714Z,99.90
2023-07-17T02:39:26.952Z,99.90
2023-07-17T02:41:55.176Z,99.90
2023-07-17T02:44:23.625Z,99.90
2023-07-17T02:46:52.516Z,99.90
2023-07-17T02:49:21.308Z,99.90
2023-07-17T02:51:50.868Z,99.90
2023-07-17T02:54:19.225Z,99.90
2023-07-17T02:56:47.621Z,99.90
2023-07-17T02:59:15.901Z,99.90
2023-07-17T03:01:44.723Z,99.90
2023-07-17T03:04:12.986Z,99.90
2023-07-17T03:06:41.257Z,99.90
2023-07-17T03:09:10.884Z,99.90
2023-07-17T03:11:39.159Z,99.90
2023-07-17T03:14:07.448Z,99.90
2023-07-17T03:16:35.848Z,99.90
2023-07-17T03:19:04.312Z,99.90
2023-07-17T03:21:33.547Z,99.90
2023-07-17T03:24:03.832Z,99.90
2023-07-17T03:26:33.601Z,99.90
2023-07-17T03:29:01.920Z,99.90
2023-07-17T03:31:30.110Z,99.90
2023-07-17T03:33:59.718Z,99.90
2023-07-17T03:36:28.070Z,99.90
2023-07-17T03:38:56.324Z,99.90
2023-07-17T03:41:24.807Z,99.90
2023-07-17T03:43:58.157Z,99.90
2023-07-17T03:46:26.644Z,99.90
2023-07-17T03:48:54.874Z,99.90
2023-07-17T03:51:24.460Z,99.90
2023-07-17T03:53:53.778Z,99.90
2023-07-17T03:56:22.927Z,99.90
2023-07-17T03:58:52.003Z,99.90
2023-07-17T04:01:22.048Z,99.90
2023-07-17T04:03:52.901Z,99.90
2023-07-17T04:06:22.790Z,99.90
2023-07-17T04:08:51.078Z,99.90
2023-07-17T04:11:19.702Z,99.90
2023-07-17T04:13:52.037Z,99.90
2023-07-17T04:16:22.493Z,99.90
2023-07-17T04:18:50.840Z,99.90
2023-07-17T04:21:19.658Z,99.90
2023-07-17T04:23:52.369Z,99.90
2023-07-17T04:26:26.085Z,99.90
2023-07-17T04:28:54.450Z,99.90
2023-07-17T04:31:24.816Z,99.90
2023-07-17T04:33:53.708Z,99.90
2023-07-17T04:36:22.463Z,99.90
2023-07-17T04:38:50.817Z,99.90
2023-07-17T04:41:19.480Z,99.90
2023-07-17T04:43:47.836Z,99.90
2023-07-17T04:46:16.373Z,99.90
2023-07-17T04:48:46.008Z,99.90
2023-07-17T04:51:14.457Z,99.90
2023-07-17T04:53:42.937Z,99.90
2023-07-17T04:56:11.289Z,99.90
2023-07-17T04:58:39.997Z,99.90
2023-07-17T05:01:08.365Z,99.90
2023-07-17T05:03:37.982Z,99.90
2023-07-17T05:06:08.052Z,99.90
2023-07-17T05:08:36.385Z,99.90
2023-07-17T05:11:06.059Z,99.90
2023-07-17T05:13:39.424Z,99.90
2023-07-17T05:16:08.775Z,99.90
2023-07-17T05:18:36.989Z,99.90
2023-07-17T05:21:05.246Z,99.90
2023-07-17T05:23:35.463Z,99.90
2023-07-17T05:26:05.703Z,99.90
2023-07-17T05:28:35.522Z,99.90
2023-07-17T05:31:04.058Z,99.90
2023-07-17T05:33:32.569Z,99.90
2023-07-17T05:36:01.408Z,99.90
2023-07-17T05:38:30.539Z,99.90
2023-07-17T05:41:02.141Z,99.90
2023-07-17T05:43:32.515Z,99.90
2023-07-17T05:46:07.147Z,99.90
2023-07-17T05:48:35.445Z,99.90
2023-07-17T05:51:03.742Z,99.90
2023-07-17T05:53:31.923Z,99.90
2023-07-17T05:56:01.503Z,99.90
2023-07-17T05:58:30.763Z,99.90
2023-07-17T06:00:59.117Z,99.90
2023-07-17T06:03:27.541Z,99.90
2023-07-17T06:05:55.762Z,99.90
2023-07-17T06:08:23.876Z,99.90
2023-07-17T06:10:52.272Z,99.90
2023-07-17T06:13:22.073Z,99.90
2023-07-17T06:15:50.302Z,99.90
2023-07-17T06:18:18.545Z,99.90
2023-07-17T06:20:47.335Z,99.90
2023-07-17T06:23:15.546Z,99.90
2023-07-17T06:25:44.011Z,99.90
2023-07-17T06:28:12.264Z,99.90
2023-07-17T06:30:41.944Z,99.90
2023-07-17T06:33:10.408Z,99.90
2023-07-17T06:35:38.712Z,99.90
2023-07-17T06:38:06.953Z,99.90
2023-07-17T06:40:36.193Z,99.90
2023-07-17T06:43:04.660Z,99.90
2023-07-17T06:45:32.979Z,99.90
2023-07-17T06:48:02.554Z,99.90
2023-07-17T06:50:31.779Z,99.90
2023-07-17T06:53:00.049Z,99.90
2023-07-17T06:55:28.916Z,99.90
2023-07-17T06:57:57.104Z,99.90
2023-07-17T07:00:25.467Z,99.90
2023-07-17T07:02:55.236Z,99.90
2023-07-17T07:05:25.105Z,99.90
2023-07-17T07:07:53.567Z,99.90
2023-07-17T07:10:21.707Z,99.90
2023-07-17T07:12:49.858Z,99.90
2023-07-17T07:15:18.026Z,99.90
2023-07-17T07:17:46.513Z,99.90
2023-07-17T07:20:15.066Z,99.90
2023-07-17T07:22:44.668Z,99.90
2023-07-17T07:25:12.829Z,99.90
2023-07-17T07:27:42.035Z,99.90
2023-07-17T07:30:10.848Z,99.90
2023-07-17T07:32:40.638Z,99.90
2023-07-17T07:35:09.451Z,99.90
2023-07-17T07:37:38.786Z,99.90
2023-07-17T07:40:12.589Z,99.90
2023-07-17T07:42:41.516Z,99.90
2023-07-17T07:45:11.168Z,99.90
2023-07-17T07:47:39.558Z,99.90
2023-07-17T07:51:05.102Z,99.90
2023-07-17T07:53:42.517Z,99.90
2023-07-17T07:56:12.900Z,99.90
2023-07-17T07:58:40.956Z,99.90
2023-07-17T08:01:09.124Z,99.90
2023-07-17T08:03:37.374Z,99.90
2023-07-17T08:06:05.572Z,99.90
2023-07-17T08:08:34.023Z,99.90
2023-07-17T08:11:02.892Z,99.90
2023-07-17T08:13:32.488Z,99.90
2023-07-17T08:16:00.534Z,99.90
2023-07-17T08:18:28.904Z,99.90
2023-07-17T08:20:57.380Z,99.90
2023-07-17T08:23:29.213Z,99.90
2023-07-17T08:25:57.352Z,99.90
2023-07-17T08:28:25.436Z,99.90
2023-07-17T08:30:55.112Z,99.90
2023-07-17T08:33:23.467Z,99.90
2023-07-17T08:35:52.694Z,99.90
2023-07-17T08:38:20.830Z,99.90
2023-07-17T08:40:54.316Z,99.90
2023-07-17T08:43:23.377Z,99.90
2023-07-17T08:45:54.619Z,99.90
2023-07-17T08:48:22.847Z,99.90
2023-07-17T08:50:53.354Z,99.90
2023-07-17T08:53:23.987Z,99.90
2023-07-17T08:55:55.073Z,99.90
2023-07-17T08:58:25.014Z,99.90
2023-07-17T09:00:54.684Z,99.90
2023-07-17T09:03:22.906Z,99.90
2023-07-17T09:05:51.012Z,99.90
2023-07-17T09:08:19.065Z,99.90
2023-07-17T09:10:47.074Z,99.90
2023-07-17T09:13:15.419Z,99.90
2023-07-17T09:15:43.567Z,99.90
2023-07-17T09:18:12.951Z,99.90
2023-07-17T09:20:41.227Z,99.90
2023-07-17T09:23:09.297Z,99.90
2023-07-17T09:25:37.305Z,99.80
2023-07-17T09:28:05.567Z,99.80
2023-07-17T09:30:33.553Z,99.90
2023-07-17T09:33:07.663Z,99.90
2023-07-17T09:35:37.740Z,99.70
2023-07-17T09:38:10.860Z,99.20
2023-07-17T09:40:39.003Z,98.80
2023-07-17T09:43:07.994Z,98.60
2023-07-17T09:45:36.852Z,98.70
2023-07-17T09:48:07.006Z,97.80
2023-07-17T09:50:38.119Z,98.80
2023-07-17T09:53:08.725Z,99.80
2023-07-17T09:55:38.445Z,99.60
2023-07-17T09:58:07.839Z,97.70
2023-07-17T10:00:38.513Z,97.90
2023-07-17T10:03:09.973Z,97.00
2023-07-17T10:05:40.166Z,95.50
2023-07-17T10:08:11.368Z,95.40
2023-07-17T10:10:41.710Z,96.50
2023-07-17T10:13:10.740Z,95.70
2023-07-17T10:15:39.318Z,96.40
2023-07-17T10:18:10.573Z,95.60
2023-07-17T10:20:40.529Z,95.90
2023-07-17T10:23:23.759Z,96.60
2023-07-17T10:25:52.048Z,96.40
2023-07-17T10:28:32.417Z,96.50
2023-07-17T10:31:09.723Z,95.20
2023-07-17T10:33:39.041Z,96.30
2023-07-17T10:36:14.432Z,96.00
2023-07-17T10:38:43.429Z,95.90
2023-07-17T10:41:27.299Z,96.70
2023-07-17T10:44:10.702Z,97.50
2023-07-17T10:46:45.271Z,96.70
2023-07-17T10:49:14.695Z,97.20
2023-07-17T10:51:46.202Z,96.40
2023-07-17T10:54:14.669Z,96.40
2023-07-17T10:56:44.025Z,96.10
2023-07-17T10:59:12.153Z,95.20
2023-07-17T11:01:40.178Z,94.90
2023-07-17T11:04:09.995Z,95.70
2023-07-17T11:06:38.290Z,95.20
2023-07-17T11:09:08.392Z,95.60
2023-07-17T11:11:36.606Z,95.90
2023-07-17T11:14:05.961Z,95.20
2023-07-17T11:16:35.140Z,94.60
2023-07-17T11:19:05.371Z,95.00
2023-07-17T11:21:34.587Z,95.10
2023-07-17T11:24:03.756Z,94.80
2023-07-17T11:26:34.779Z,94.60
2023-07-17T11:29:04.666Z,94.20
2023-07-17T11:31:35.566Z,94.60
2023-07-17T11:34:08.097Z,95.40
2023-07-17T11:36:42.319Z,95.50
2023-07-17T11:39:11.621Z,95.60
2023-07-17T11:41:51.392Z,96.30
2023-07-17T11:44:24.409Z,96.70
2023-07-17T11:46:54.244Z,96.70
2023-07-17T11:49:22.279Z,97.00
2023-07-17T11:51:50.291Z,96.80
2023-07-17T11:54:18.371Z,97.10
2023-07-17T11:56:47.970Z,97.30
2023-07-17T11:59:21.519Z,96.00
2023-07-17T12:01:50.606Z,95.00
2023-07-17T12:04:21.691Z,94.50
2023-07-17T12:06:50.447Z,94.70
2023-07-17T12:09:19.186Z,93.70
2023-07-17T12:11:48.436Z,94.00
2023-07-17T12:14:18.255Z,94.60
2023-07-17T12:16:48.603Z,94.80
2023-07-17T12:19:17.165Z,94.60
2023-07-17T12:21:45.419Z,93.40
2023-07-17T12:24:17.158Z,92.80
2023-07-17T12:26:45.159Z,93.20
2023-07-17T12:29:13.205Z,93.60
2023-07-17T12:31:41.273Z,94.10
2023-07-17T12:34:11.448Z,92.80
2023-07-17T12:36:39.447Z,92.60
2023-07-17T12:39:14.259Z,93.70
2023-07-17T12:41:42.575Z,92.60
2023-07-17T12:44:12.161Z,90.90
2023-07-17T12:46:40.177Z,90.40
2023-07-17T12:49:08.970Z,91.60
2023-07-17T12:51:38.347Z,91.40
2023-07-17T12:54:06.878Z,91.90
2023-07-17T12:56:35.014Z,91.90
2023-07-17T12:59:03.103Z,90.80
2023-07-17T13:01:31.437Z,88.70
2023-07-17T13:03:59.735Z,90.20
2023-07-17T13:06:27.985Z,90.60
2023-07-17T13:08:57.479Z,90.00
2023-07-17T13:11:25.560Z,90.70
2023-07-17T13:13:53.531Z,87.90
2023-07-17T13:16:21.538Z,85.40
2023-07-17T13:18:49.604Z,82.50
2023-07-17T13:21:17.918Z,83.90
2023-07-17T13:23:46.117Z,85.00
2023-07-17T13:26:16.214Z,85.90
2023-07-17T13:28:44.259Z,85.30
2023-07-17T13:31:12.325Z,85.00
2023-07-17T13:33:40.508Z,84.00
2023-07-17T13:36:08.960Z,85.00
2023-07-17T13:38:36.994Z,84.60
2023-07-17T13:41:20.233Z,84.10
2023-07-17T13:43:48.452Z,84.60
2023-07-17T13:46:16.487Z,86.10
2023-07-17T13:48:44.518Z,85.40
2023-07-17T13:51:12.540Z,84.00
2023-07-17T13:53:40.553Z,84.10
2023-07-17T13:56:08.728Z,84.00
2023-07-17T13:58:43.819Z,84.20
2023-07-17T14:01:12.335Z,85.30
2023-07-17T14:03:40.511Z,84.50
2023-07-17T14:06:08.512Z,83.20
2023-07-17T14:08:36.497Z,83.80
2023-07-17T14:11:04.596Z,84.30
2023-07-17T14:13:32.611Z,81.70
2023-07-17T14:16:01.997Z,79.60
2023-07-17T14:18:30.057Z,80.20
2023-07-17T14:20:59.170Z,82.20
2023-07-17T14:23:27.153Z,84.30
2023-07-17T14:25:55.114Z,85.40
2023-07-17T14:28:23.112Z,89.00
2023-07-17T14:30:51.089Z,92.30
2023-07-17T14:33:20.468Z,95.10
2023-07-17T14:35:48.471Z,97.50
2023-07-17T14:38:16.671Z,99.10
2023-07-17T14:40:44.763Z,99.90
2023-07-17T14:43:12.768Z,99.90
2023-07-17T14:45:41.068Z,99.90
2023-07-17T14:48:09.425Z,99.90
2023-07-17T14:50:39.083Z,99.90
2023-07-17T14:53:07.052Z,99.90
2023-07-17T14:55:37.142Z,99.90
2023-07-17T14:58:05.375Z,99.90
2023-07-17T15:00:33.429Z,99.90
2023-07-17T15:03:01.553Z,99.90
2023-07-17T15:05:29.670Z,99.90
2023-07-17T15:07:59.054Z,99.90
2023-07-17T15:10:27.572Z,99.90
2023-07-17T15:12:55.557Z,99.90
2023-07-17T15:15:23.766Z,99.90
2023-07-17T15:17:52.645Z,99.90
2023-07-17T15:20:20.979Z,99.90
2023-07-17T15:22:49.236Z,99.90
2023-07-17T15:25:18.729Z,99.90
2023-07-17T15:27:46.790Z,99.90
2023-07-17T15:30:15.456Z,99.90
2023-07-17T15:32:44.533Z,99.90
2023-07-17T15:35:12.853Z,99.90
2023-07-17T15:37:41.003Z,99.90
2023-07-17T15:40:10.890Z,99.90
2023-07-17T15:42:40.390Z,99.90
2023-07-17T15:45:20.325Z,99.90
2023-07-17T15:47:48.393Z,99.90
2023-07-17T15:50:16.770Z,99.90
2023-07-17T15:52:44.830Z,99.90
2023-07-17T15:55:12.870Z,99.90
2023-07-17T15:57:42.311Z,99.90
2023-07-17T16:00:11.333Z,99.90
2023-07-17T16:02:42.060Z,99.90
2023-07-17T16:05:10.574Z,99.90
2023-07-17T16:07:38.652Z,99.90
2023-07-17T16:10:07.686Z,99.90
2023-07-17T16:12:35.746Z,99.90
2023-07-17T16:15:06.492Z,99.90
2023-07-17T16:17:35.092Z,99.90
2023-07-17T16:20:03.205Z,99.90
2023-07-17T16:22:31.232Z,99.90
2023-07-17T16:24:59.326Z,99.90
2023-07-17T16:27:27.334Z,99.90
2023-07-17T16:29:55.455Z,99.90
2023-07-17T16:32:25.372Z,99.90
2023-07-17T16:34:53.632Z,99.90
2023-07-17T16:37:21.699Z,99.90
2023-07-17T16:39:49.752Z,99.90
2023-07-17T16:42:17.736Z,99.90
2023-07-17T16:44:45.757Z,99.90
2023-07-17T16:47:13.852Z,99.90
2023-07-17T16:49:43.228Z,99.90
2023-07-17T16:52:11.238Z,99.90
2023-07-17T16:54:39.275Z,99.90
2023-07-17T16:57:07.919Z,99.90
2023-07-17T16:59:35.903Z,99.90
2023-07-17T17:02:05.204Z,99.90
2023-07-17T17:04:33.333Z,99.90
2023-07-17T17:07:02.809Z,99.90
2023-07-17T17:09:30.808Z,99.90
2023-07-17T17:11:58.796Z,99.90
2023-07-17T17:14:26.806Z,99.90
2023-07-17T17:16:54.996Z,99.90
2023-07-17T17:19:23.025Z,99.90
2023-07-17T17:21:51.102Z,99.90
2023-07-17T17:24:21.104Z,99.90
2023-07-17T17:26:49.074Z,99.90
2023-07-17T17:29:17.072Z,99.90
2023-07-17T17:31:45.138Z,99.90
2023-07-17T17:34:13.381Z,99.90
2023-07-17T17:36:41.423Z,99.90
2023-07-17T17:39:09.432Z,99.90
2023-07-17T17:41:39.231Z,99.90
2023-07-17T17:44:08.134Z,99.90
2023-07-17T17:46:36.173Z,99.90
2023-07-17T17:49:04.267Z,99.90
2023-07-17T17:51:32.248Z,99.90
2023-07-17T17:54:00.298Z,99.90
2023-07-17T17:56:28.343Z,99.90
2023-07-17T17:58:57.722Z,99.90
2023-07-17T18:01:25.775Z,99.90
2023-07-17T18:03:56.415Z,99.90
2023-07-17T18:06:24.619Z,99.90
2023-07-17T18:08:52.588Z,99.90
2023-07-17T18:11:20.808Z,99.90
2023-07-17T18:13:49.310Z,99.90
2023-07-17T18:16:18.755Z,99.90
2023-07-17T18:18:46.847Z,99.90
2023-07-17T18:21:14.856Z,99.90
2023-07-17T18:23:42.930Z,99.90
2023-07-17T18:26:10.903Z,99.90
2023-07-17T18:28:38.881Z,99.90
2023-07-17T18:31:06.878Z,99.90
2023-07-17T18:33:36.280Z,99.90
2023-07-17T18:36:04.687Z,99.90
2023-07-17T18:38:33.037Z,99.90
2023-07-17T18:41:02.299Z,99.90
2023-07-17T18:43:30.522Z,99.90
2023-07-17T18:46:00.522Z,99.90
2023-07-17T18:48:28.867Z,99.90
2023-07-17T18:50:58.495Z,99.90
2023-07-17T18:53:26.456Z,99.90
2023-07-17T18:55:55.496Z,99.90
2023-07-17T18:58:24.136Z,99.90
2023-07-17T19:00:52.414Z,99.90
2023-07-17T19:03:20.442Z,99.90
2023-07-17T19:05:50.122Z,99.90
2023-07-17T19:08:19.572Z,99.90
2023-07-17T19:10:47.588Z,99.90
2023-07-17T19:13:16.752Z,99.90
2023-07-17T19:15:44.776Z,99.90
2023-07-17T19:18:12.861Z,99.90
2023-07-17T19:20:41.701Z,99.90
2023-07-17T19:23:09.857Z,99.90
2023-07-17T19:25:39.411Z,99.90
2023-07-17T19:28:08.139Z,99.90
2023-07-17T19:30:36.925Z,99.90
2023-07-17T19:33:05.050Z,99.90
2023-07-17T19:35:33.331Z,99.90
2023-07-17T19:38:01.340Z,99.90
2023-07-17T19:40:29.364Z,99.90
2023-07-17T19:42:58.817Z,99.90
2023-07-17T19:45:27.305Z,99.90
2023-07-17T19:47:55.348Z,99.90
2023-07-17T19:50:23.402Z,99.90
2023-07-17T19:52:51.387Z,99.90
2023-07-17T19:55:19.414Z,99.90
2023-07-17T19:57:47.403Z,99.90
2023-07-17T20:00:17.206Z,99.90
2023-07-17T20:02:47.949Z,99.90
2023-07-17T20:05:16.065Z,99.90
2023-07-17T20:07:44.064Z,99.90
2023-07-17T20:10:12.147Z,99.90
2023-07-17T20:12:40.215Z,99.90
2023-07-17T20:15:09.785Z,99.90
2023-07-17T20:17:39.788Z,99.90
2023-07-17T20:20:11.037Z,99.90
2023-07-17T20:22:41.038Z,99.90
2023-07-17T20:25:10.931Z,99.90
2023-07-17T20:27:42.783Z,99.90
2023-07-17T20:30:13.023Z,99.90
2023-07-17T20:32:42.726Z,99.90
2023-07-17T20:35:25.837Z,99.90
2023-07-17T20:37:55.172Z,99.90
2023-07-17T20:40:23.250Z,99.90
2023-07-17T20:42:53.220Z,99.90
2023-07-17T20:45:30.771Z,99.90
2023-07-17T20:48:00.509Z,99.90
2023-07-17T20:50:28.699Z,99.90
2023-07-17T20:52:57.993Z,99.90
2023-07-17T20:55:26.340Z,99.90
2023-07-17T20:57:54.310Z,99.90
2023-07-17T21:00:22.289Z,99.90
2023-07-17T21:02:50.497Z,99.90
2023-07-17T21:05:25.162Z,99.90
2023-07-17T21:07:53.456Z,99.90
2023-07-17T21:10:21.630Z,99.90
2023-07-17T21:12:51.600Z,99.90
2023-07-17T21:15:19.670Z,99.90
2023-07-17T21:17:47.710Z,99.90
2023-07-17T21:20:15.949Z,99.90
2023-07-17T21:22:45.322Z,99.90
2023-07-17T21:25:13.336Z,99.90
2023-07-17T21:27:41.312Z,99.90
2023-07-17T21:30:10.332Z,99.90
2023-07-17T21:32:38.621Z,99.90
2023-07-17T21:35:07.569Z,99.90
2023-07-17T21:37:35.594Z,99.90
2023-07-17T21:40:06.528Z,99.90
2023-07-17T21:42:34.535Z,99.90
2023-07-17T21:45:02.625Z,99.90
2023-07-17T21:47:30.723Z,99.90
2023-07-17T21:49:59.382Z,99.90
2023-07-17T21:52:27.583Z,99.90
2023-07-17T21:54:55.802Z,99.90
2023-07-17T21:57:25.219Z,99.90
2023-07-17T21:59:54.446Z,99.90
2023-07-17T22:02:22.958Z,99.90
2023-07-17T22:04:51.042Z,99.90
2023-07-17T22:07:19.061Z,99.90
2023-07-17T22:09:52.206Z,99.90
2023-07-17T22:12:20.775Z,99.90
2023-07-17T22:14:51.775Z,99.90
2023-07-17T22:17:20.532Z,99.90
2023-07-17T22:19:50.189Z,99.90
2023-07-17T22:22:19.452Z,99.90
2023-07-17T22:24:48.518Z,99.90
2023-07-17T22:27:16.626Z,99.90
2023-07-17T22:29:44.630Z,99.90
2023-07-17T22:32:14.884Z,99.90
2023-07-17T22:34:42.935Z,99.90
2023-07-17T22:37:11.042Z,99.90
2023-07-17T22:39:39.056Z,99.90
2023-07-17T22:42:07.215Z,99.90
2023-07-17T22:44:36.933Z,99.90
2023-07-17T22:47:05.423Z,99.90
2023-07-17T22:49:34.837Z,99.90
2023-07-17T22:52:02.906Z,99.90
2023-07-17T22:54:31.184Z,99.90
2023-07-17T22:56:59.254Z,99.90
2023-07-17T22:59:27.967Z,99.90
2023-07-17T23:01:56.287Z,99.90
2023-07-17T23:04:25.253Z,99.90
2023-07-17T23:06:54.712Z,99.90
2023-07-17T23:09:22.749Z,99.90
2023-07-17T23:11:50.733Z,99.90
2023-07-17T23:14:18.734Z,99.90
2023-07-17T23:16:47.167Z,99.90
2023-07-17T23:19:16.318Z,99.90
2023-07-17T23:21:45.178Z,99.90
2023-07-17T23:24:14.529Z,99.90
2023-07-17T23:26:44.456Z,99.90
2023-07-17T23:29:12.635Z,99.90
2023-07-17T23:31:40.679Z,99.90
2023-07-17T23:34:08.731Z,99.90
2023-07-17T23:36:37.104Z,99.90
2023-07-17T23:39:05.195Z,99.90
2023-07-17T23:41:34.548Z,99.90
2023-07-17T23:44:02.520Z,99.90
2023-07-17T23:46:30.523Z,99.90
2023-07-17T23:48:59.051Z,99.90
2023-07-17T23:51:27.022Z,99.90
2023-07-17T23:53:55.386Z,99.90
2023-07-17T23:56:23.371Z,99.90
2023-07-17T23:58:52.703Z,99.90
